sensor_id;sensor_type;location;lat;lon;timestamp;temperature;humidity
25708;DHT22;13567;61.652;17.100;2022-09-21T00:01:19;5.40;99.90
25708;DHT22;13567;61.652;17.100;2022-09-21T00:03:50;5.40;99.90
25708;DHT22;13567;61.652;17.100;2022-09-21T00:06:19;5.30;99.90
25708;DHT22;13567;61.652;17.100;2022-09-21T00:08:47;5.30;99.90
25708;DHT22;13567;61.652;17.100;2022-09-21T00:11:17;5.40;99.90
25708;DHT22;13567;61.652;17.100;2022-09-21T00:13:44;5.40;99.90
25708;DHT22;13567;61.652;17.100;2022-09-21T00:16:14;5.40;99.90
25708;DHT22;13567;61.652;17.100;2022-09-21T00:18:42;5.40;99.90
25708;DHT22;13567;61.652;17.100;2022-09-21T00:21:12;5.30;99.90
25708;DHT22;13567;61.652;17.100;2022-09-21T00:23:40;5.20;99.90
25708;DHT22;13567;61.652;17.100;2022-09-21T00:28:36;5.20;99.90
25708;DHT22;13567;61.652;17.100;2022-09-21T00:31:05;5.30;99.90
25708;DHT22;13567;61.652;17.100;2022-09-21T00:33:33;5.30;99.90
25708;DHT22;13567;61.652;17.100;2022-09-21T00:36:02;5.30;99.90
25708;DHT22;13567;61.652;17.100;2022-09-21T00:38:30;5.30;99.90
25708;DHT22;13567;61.652;17.100;2022-09-21T00:40:58;5.40;99.90
25708;DHT22;13567;61.652;17.100;2022-09-21T00:43:25;5.40;99.90
25708;DHT22;13567;61.652;17.100;2022-09-21T00:45:58;5.40;99.90
25708;DHT22;13567;61.652;17.100;2022-09-21T00:48:27;5.30;99.90
25708;DHT22;13567;61.652;17.100;2022-09-21T00:50:57;5.30;99.90
25708;DHT22;13567;61.652;17.100;2022-09-21T00:53:26;5.20;99.90
25708;DHT22;13567;61.652;17.100;2022-09-21T00:55:55;5.20;99.90
25708;DHT22;13567;61.652;17.100;2022-09-21T00:58:30;5.20;99.90
25708;DHT22;13567;61.652;17.100;2022-09-21T01:00:59;5.20;99.90
25708;DHT22;13567;61.652;17.100;2022-09-21T01:03:27;5.20;99.90
25708;DHT22;13567;61.652;17.100;2022-09-21T01:05:55;5.20;99.90
25708;DHT22;13567;61.652;17.100;2022-09-21T01:08:24;5.20;99.90
25708;DHT22;13567;61.652;17.100;2022-09-21T01:17:08;5.20;99.90
25708;DHT22;13567;61.652;17.100;2022-09-21T01:30:33;5.30;99.90
25708;DHT22;13567;61.652;17.100;2022-09-21T01:33:28;5.30;99.90
25708;DHT22;13567;61.652;17.100;2022-09-21T01:36:04;5.30;99.90
25708;DHT22;13567;61.652;17.100;2022-09-21T01:38:44;5.20;99.90
25708;DHT22;13567;61.652;17.100;2022-09-21T01:41:18;5.20;99.90
25708;DHT22;13567;61.652;17.100;2022-09-21T01:43:50;5.10;99.90
25708;DHT22;13567;61.652;17.100;2022-09-21T01:46:21;5.20;99.90
25708;DHT22;13567;61.652;17.100;2022-09-21T01:48:54;5.10;99.90
25708;DHT22;13567;61.652;17.100;2022-09-21T01:51:25;5.10;99.90
25708;DHT22;13567;61.652;17.100;2022-09-21T01:54:01;5.10;99.90
25708;DHT22;13567;61.652;17.100;2022-09-21T01:56:42;5.10;99.90
25708;DHT22;13567;61.652;17.100;2022-09-21T01:59:21;5.10;99.90
25708;DHT22;13567;61.652;17.100;2022-09-21T02:01:55;5.10;99.90
25708;DHT22;13567;61.652;17.100;2022-09-21T02:04:23;5.10;99.90
25708;DHT22;13567;61.652;17.100;2022-09-21T02:06:51;5.00;99.90
25708;DHT22;13567;61.652;17.100;2022-09-21T02:09:19;5.10;99.90
25708;DHT22;13567;61.652;17.100;2022-09-21T02:11:46;5.20;99.90
25708;DHT22;13567;61.652;17.100;2022-09-21T02:14:16;5.10;99.90
25708;DHT22;13567;61.652;17.100;2022-09-21T02:17:06;5.10;99.90
25708;DHT22;13567;61.652;17.100;2022-09-21T02:19:53;5.00;99.90
25708;DHT22;13567;61.652;17.100;2022-09-21T02:22:58;5.00;99.90
25708;DHT22;13567;61.652;17.100;2022-09-21T02:25:38;5.00;99.90
25708;DHT22;13567;61.652;17.100;2022-09-21T02:33:52;4.90;99.90
25708;DHT22;13567;61.652;17.100;2022-09-21T02:36:50;4.90;99.90
25708;DHT22;13567;61.652;17.100;2022-09-21T02:39:32;4.90;99.90
25708;DHT22;13567;61.652;17.100;2022-09-21T02:42:08;4.80;99.90
25708;DHT22;13567;61.652;17.100;2022-09-21T02:44:45;4.80;99.90
25708;DHT22;13567;61.652;17.100;2022-09-21T02:47:26;4.80;99.90
25708;DHT22;13567;61.652;17.100;2022-09-21T02:49:58;4.70;99.90
25708;DHT22;13567;61.652;17.100;2022-09-21T02:52:29;4.70;99.90
25708;DHT22;13567;61.652;17.100;2022-09-21T02:54:57;4.70;99.90
25708;DHT22;13567;61.652;17.100;2022-09-21T02:57:25;4.70;99.90
25708;DHT22;13567;61.652;17.100;2022-09-21T02:59:52;4.70;99.90
25708;DHT22;13567;61.652;17.100;2022-09-21T03:02:19;4.60;99.90
25708;DHT22;13567;61.652;17.100;2022-09-21T03:04:47;4.60;99.90
25708;DHT22;13567;61.652;17.100;2022-09-21T03:07:15;4.60;99.90
25708;DHT22;13567;61.652;17.100;2022-09-21T03:09:42;4.60;99.90
25708;DHT22;13567;61.652;17.100;2022-09-21T03:12:10;4.40;99.90
25708;DHT22;13567;61.652;17.100;2022-09-21T03:14:37;4.40;99.90
25708;DHT22;13567;61.652;17.100;2022-09-21T03:17:04;4.40;99.90
25708;DHT22;13567;61.652;17.100;2022-09-21T03:19:31;4.40;99.90
25708;DHT22;13567;61.652;17.100;2022-09-21T03:21:58;4.40;99.90
25708;DHT22;13567;61.652;17.100;2022-09-21T03:24:25;4.30;99.90
25708;DHT22;13567;61.652;17.100;2022-09-21T03:27:19;4.30;99.90
25708;DHT22;13567;61.652;17.100;2022-09-21T03:29:46;4.20;99.90
25708;DHT22;13567;61.652;17.100;2022-09-21T03:32:14;4.20;99.90
25708;DHT22;13567;61.652;17.100;2022-09-21T03:34:41;4.20;99.90
25708;DHT22;13567;61.652;17.100;2022-09-21T03:37:09;4.20;99.90
25708;DHT22;13567;61.652;17.100;2022-09-21T03:39:36;4.10;99.90
25708;DHT22;13567;61.652;17.100;2022-09-21T03:42:03;4.10;99.90
25708;DHT22;13567;61.652;17.100;2022-09-21T03:44:30;4.10;99.90
25708;DHT22;13567;61.652;17.100;2022-09-21T03:46:57;4.10;99.90
25708;DHT22;13567;61.652;17.100;2022-09-21T03:49:24;4.10;99.90
25708;DHT22;13567;61.652;17.100;2022-09-21T03:51:51;4.10;99.90
25708;DHT22;13567;61.652;17.100;2022-09-21T03:54:19;4.10;99.90
25708;DHT22;13567;61.652;17.100;2022-09-21T03:56:47;4.10;99.90
25708;DHT22;13567;61.652;17.100;2022-09-21T03:59:14;4.10;99.90
25708;DHT22;13567;61.652;17.100;2022-09-21T04:01:41;4.20;99.90
25708;DHT22;13567;61.652;17.100;2022-09-21T04:04:09;4.20;99.90
25708;DHT22;13567;61.652;17.100;2022-09-21T04:06:36;4.20;99.90
25708;DHT22;13567;61.652;17.100;2022-09-21T04:09:03;4.20;99.90
25708;DHT22;13567;61.652;17.100;2022-09-21T04:11:30;4.20;99.90
25708;DHT22;13567;61.652;17.100;2022-09-21T04:13:59;4.20;99.90
25708;DHT22;13567;61.652;17.100;2022-09-21T04:16:26;4.20;99.90
25708;DHT22;13567;61.652;17.100;2022-09-21T04:18:54;4.20;99.90
25708;DHT22;13567;61.652;17.100;2022-09-21T04:21:21;4.10;99.90
25708;DHT22;13567;61.652;17.100;2022-09-21T04:23:48;4.10;99.90
25708;DHT22;13567;61.652;17.100;2022-09-21T04:26:32;4.00;99.90
25708;DHT22;13567;61.652;17.100;2022-09-21T04:29:00;3.90;99.90
25708;DHT22;13567;61.652;17.100;2022-09-21T04:31:28;3.90;99.90
25708;DHT22;13567;61.652;17.100;2022-09-21T04:33:56;3.80;99.90
25708;DHT22;13567;61.652;17.100;2022-09-21T04:36:26;3.80;99.90
25708;DHT22;13567;61.652;17.100;2022-09-21T04:38:53;3.80;99.90
25708;DHT22;13567;61.652;17.100;2022-09-21T04:41:20;3.80;99.90
25708;DHT22;13567;61.652;17.100;2022-09-21T04:43:47;3.90;99.90
25708;DHT22;13567;61.652;17.100;2022-09-21T04:46:16;3.80;99.90
25708;DHT22;13567;61.652;17.100;2022-09-21T04:48:46;3.90;99.90
25708;DHT22;13567;61.652;17.100;2022-09-21T04:51:14;3.90;99.90
25708;DHT22;13567;61.652;17.100;2022-09-21T04:53:43;4.00;99.90
25708;DHT22;13567;61.652;17.100;2022-09-21T04:56:13;4.10;99.90
25708;DHT22;13567;61.652;17.100;2022-09-21T04:58:41;4.10;99.90
25708;DHT22;13567;61.652;17.100;2022-09-21T05:01:08;4.20;99.90
25708;DHT22;13567;61.652;17.100;2022-09-21T05:03:35;4.20;99.90
25708;DHT22;13567;61.652;17.100;2022-09-21T05:06:03;4.30;99.90
25708;DHT22;13567;61.652;17.100;2022-09-21T05:08:30;4.30;99.90
25708;DHT22;13567;61.652;17.100;2022-09-21T05:11:17;4.20;99.90
25708;DHT22;13567;61.652;17.100;2022-09-21T05:13:45;4.30;99.90
25708;DHT22;13567;61.652;17.100;2022-09-21T05:16:13;4.30;99.90
25708;DHT22;13567;61.652;17.100;2022-09-21T05:18:41;4.30;99.90
25708;DHT22;13567;61.652;17.100;2022-09-21T05:21:08;4.40;99.90
25708;DHT22;13567;61.652;17.100;2022-09-21T05:23:37;4.40;99.90
25708;DHT22;13567;61.652;17.100;2022-09-21T05:26:04;4.50;99.90
25708;DHT22;13567;61.652;17.100;2022-09-21T05:28:32;4.40;99.90
25708;DHT22;13567;61.652;17.100;2022-09-21T05:34:32;4.60;99.90
25708;DHT22;13567;61.652;17.100;2022-09-21T05:39:32;4.80;99.90
25708;DHT22;13567;61.652;17.100;2022-09-21T05:41:59;4.80;99.90
25708;DHT22;13567;61.652;17.100;2022-09-21T05:44:27;4.90;99.90
25708;DHT22;13567;61.652;17.100;2022-09-21T05:49:59;5.10;99.90
25708;DHT22;13567;61.652;17.100;2022-09-21T05:59:04;5.40;99.90
25708;DHT22;13567;61.652;17.100;2022-09-21T06:03:49;5.70;99.90
25708;DHT22;13567;61.652;17.100;2022-09-21T06:06:17;5.80;99.90
25708;DHT22;13567;61.652;17.100;2022-09-21T06:08:45;5.90;99.90
25708;DHT22;13567;61.652;17.100;2022-09-21T06:11:12;6.00;99.90
25708;DHT22;13567;61.652;17.100;2022-09-21T06:13:39;6.10;99.90
25708;DHT22;13567;61.652;17.100;2022-09-21T06:16:07;6.20;99.90
25708;DHT22;13567;61.652;17.100;2022-09-21T06:18:38;6.30;99.90
25708;DHT22;13567;61.652;17.100;2022-09-21T06:21:08;6.40;99.90
25708;DHT22;13567;61.652;17.100;2022-09-21T06:23:35;6.50;99.90
25708;DHT22;13567;61.652;17.100;2022-09-21T06:26:02;6.60;99.90
25708;DHT22;13567;61.652;17.100;2022-09-21T06:28:29;6.80;99.90
25708;DHT22;13567;61.652;17.100;2022-09-21T06:30:57;7.10;99.90
25708;DHT22;13567;61.652;17.100;2022-09-21T06:33:24;7.50;99.90
25708;DHT22;13567;61.652;17.100;2022-09-21T06:35:55;8.10;99.90
25708;DHT22;13567;61.652;17.100;2022-09-21T06:38:23;9.00;99.90
25708;DHT22;13567;61.652;17.100;2022-09-21T06:40:51;9.70;99.90
25708;DHT22;13567;61.652;17.100;2022-09-21T06:43:19;10.50;99.90
25708;DHT22;13567;61.652;17.100;2022-09-21T06:45:53;11.10;99.90
25708;DHT22;13567;61.652;17.100;2022-09-21T06:48:21;11.40;99.90
25708;DHT22;13567;61.652;17.100;2022-09-21T06:50:48;11.90;99.90
25708;DHT22;13567;61.652;17.100;2022-09-21T06:53:15;12.00;99.90
25708;DHT22;13567;61.652;17.100;2022-09-21T06:55:43;12.80;99.90
25708;DHT22;13567;61.652;17.100;2022-09-21T06:58:10;13.50;99.90
25708;DHT22;13567;61.652;17.100;2022-09-21T07:00:37;13.80;99.90
25708;DHT22;13567;61.652;17.100;2022-09-21T07:03:08;14.20;99.90
25708;DHT22;13567;61.652;17.100;2022-09-21T07:05:36;14.70;99.90
25708;DHT22;13567;61.652;17.100;2022-09-21T07:08:03;15.10;99.90
25708;DHT22;13567;61.652;17.100;2022-09-21T07:10:31;15.40;99.90
25708;DHT22;13567;61.652;17.100;2022-09-21T07:13:03;15.70;99.90
25708;DHT22;13567;61.652;17.100;2022-09-21T07:15:31;16.60;99.90
25708;DHT22;13567;61.652;17.100;2022-09-21T07:17:59;16.80;99.90
25708;DHT22;13567;61.652;17.100;2022-09-21T07:20:33;17.50;99.90
25708;DHT22;13567;61.652;17.100;2022-09-21T07:23:00;18.40;99.90
25708;DHT22;13567;61.652;17.100;2022-09-21T07:25:27;18.80;98.70
25708;DHT22;13567;61.652;17.100;2022-09-21T07:27:54;18.40;97.40
25708;DHT22;13567;61.652;17.100;2022-09-21T07:30:21;18.30;97.20
25708;DHT22;13567;61.652;17.100;2022-09-21T07:32:48;18.10;97.20
25708;DHT22;13567;61.652;17.100;2022-09-21T07:35:15;18.30;97.40
25708;DHT22;13567;61.652;17.100;2022-09-21T07:37:42;18.30;95.80
25708;DHT22;13567;61.652;17.100;2022-09-21T07:40:09;18.60;94.70
25708;DHT22;13567;61.652;17.100;2022-09-21T07:42:36;18.70;94.60
25708;DHT22;13567;61.652;17.100;2022-09-21T07:45:04;18.80;93.60
25708;DHT22;13567;61.652;17.100;2022-09-21T07:47:32;18.80;93.90
25708;DHT22;13567;61.652;17.100;2022-09-21T07:49:59;19.20;94.10
25708;DHT22;13567;61.652;17.100;2022-09-21T07:52:26;19.30;92.00
25708;DHT22;13567;61.652;17.100;2022-09-21T07:54:53;19.60;92.30
25708;DHT22;13567;61.652;17.100;2022-09-21T07:57:20;20.20;92.00
25708;DHT22;13567;61.652;17.100;2022-09-21T08:00:06;20.60;89.10
25708;DHT22;13567;61.652;17.100;2022-09-21T08:02:35;21.00;85.70
25708;DHT22;13567;61.652;17.100;2022-09-21T08:05:02;20.30;88.80
25708;DHT22;13567;61.652;17.100;2022-09-21T08:07:29;20.80;86.70
25708;DHT22;13567;61.652;17.100;2022-09-21T08:09:57;20.30;87.60
25708;DHT22;13567;61.652;17.100;2022-09-21T08:12:24;21.80;84.90
25708;DHT22;13567;61.652;17.100;2022-09-21T08:14:51;21.90;79.10
25708;DHT22;13567;61.652;17.100;2022-09-21T08:17:18;22.00;77.10
25708;DHT22;13567;61.652;17.100;2022-09-21T08:19:45;22.30;76.30
25708;DHT22;13567;61.652;17.100;2022-09-21T08:22:12;23.00;72.60
25708;DHT22;13567;61.652;17.100;2022-09-21T08:24:39;23.30;69.10
25708;DHT22;13567;61.652;17.100;2022-09-21T08:27:10;23.60;66.50
25708;DHT22;13567;61.652;17.100;2022-09-21T08:29:37;23.80;67.70
25708;DHT22;13567;61.652;17.100;2022-09-21T08:32:04;24.40;67.60
25708;DHT22;13567;61.652;17.100;2022-09-21T08:34:31;24.10;66.70
25708;DHT22;13567;61.652;17.100;2022-09-21T08:36:58;23.90;65.80
25708;DHT22;13567;61.652;17.100;2022-09-21T08:39:25;24.20;67.10
25708;DHT22;13567;61.652;17.100;2022-09-21T08:47:40;24.20;66.20
25708;DHT22;13567;61.652;17.100;2022-09-21T08:50:45;24.10;64.10
25708;DHT22;13567;61.652;17.100;2022-09-21T08:55:44;24.30;66.30
25708;DHT22;13567;61.652;17.100;2022-09-21T08:58:32;23.50;62.20
25708;DHT22;13567;61.652;17.100;2022-09-21T09:01:31;24.00;63.20
25708;DHT22;13567;61.652;17.100;2022-09-21T09:04:29;23.60;63.70
25708;DHT22;13567;61.652;17.100;2022-09-21T09:07:08;24.50;62.40
25708;DHT22;13567;61.652;17.100;2022-09-21T09:12:52;25.60;59.00
25708;DHT22;13567;61.652;17.100;2022-09-21T09:21:13;24.50;58.50
25708;DHT22;13567;61.652;17.100;2022-09-21T09:24:05;24.70;58.50
25708;DHT22;13567;61.652;17.100;2022-09-21T09:31:47;25.00;58.30
25708;DHT22;13567;61.652;17.100;2022-09-21T09:34:28;25.10;58.80
25708;DHT22;13567;61.652;17.100;2022-09-21T09:37:00;24.90;55.70
25708;DHT22;13567;61.652;17.100;2022-09-21T09:39:31;24.70;55.70
25708;DHT22;13567;61.652;17.100;2022-09-21T09:45:04;24.80;55.50
25708;DHT22;13567;61.652;17.100;2022-09-21T09:48:15;24.90;57.40
25708;DHT22;13567;61.652;17.100;2022-09-21T09:50:47;25.40;54.30
25708;DHT22;13567;61.652;17.100;2022-09-21T09:53:18;25.20;55.10
25708;DHT22;13567;61.652;17.100;2022-09-21T09:55:48;25.10;56.50
25708;DHT22;13567;61.652;17.100;2022-09-21T09:58:21;24.80;55.60
25708;DHT22;13567;61.652;17.100;2022-09-21T10:00:53;24.50;55.50
25708;DHT22;13567;61.652;17.100;2022-09-21T10:03:24;24.80;54.20
25708;DHT22;13567;61.652;17.100;2022-09-21T10:05:52;24.10;57.00
25708;DHT22;13567;61.652;17.100;2022-09-21T10:11:05;25.30;56.30
25708;DHT22;13567;61.652;17.100;2022-09-21T10:13:34;24.80;55.50
25708;DHT22;13567;61.652;17.100;2022-09-21T10:18:58;24.60;55.50
25708;DHT22;13567;61.652;17.100;2022-09-21T10:21:33;25.10;56.30
25708;DHT22;13567;61.652;17.100;2022-09-21T10:24:25;25.90;58.30
25708;DHT22;13567;61.652;17.100;2022-09-21T10:29:48;24.90;55.50
25708;DHT22;13567;61.652;17.100;2022-09-21T10:37:32;24.90;55.00
25708;DHT22;13567;61.652;17.100;2022-09-21T10:40:23;25.00;54.40
25708;DHT22;13567;61.652;17.100;2022-09-21T10:42:56;24.10;55.30
25708;DHT22;13567;61.652;17.100;2022-09-21T10:45:29;23.60;56.80
25708;DHT22;13567;61.652;17.100;2022-09-21T10:48:13;23.70;57.10
25708;DHT22;13567;61.652;17.100;2022-09-21T10:50:46;24.00;56.20
25708;DHT22;13567;61.652;17.100;2022-09-21T10:53:26;24.50;55.10
25708;DHT22;13567;61.652;17.100;2022-09-21T10:56:02;25.10;54.50
25708;DHT22;13567;61.652;17.100;2022-09-21T11:01:49;25.40;54.20
25708;DHT22;13567;61.652;17.100;2022-09-21T11:04:32;24.30;55.10
25708;DHT22;13567;61.652;17.100;2022-09-21T11:07:12;23.60;57.40
25708;DHT22;13567;61.652;17.100;2022-09-21T11:09:56;23.40;56.70
25708;DHT22;13567;61.652;17.100;2022-09-21T11:16:06;23.50;57.70
25708;DHT22;13567;61.652;17.100;2022-09-21T11:21:31;24.10;56.80
25708;DHT22;13567;61.652;17.100;2022-09-21T11:49:18;22.50;57.60
25708;DHT22;13567;61.652;17.100;2022-09-21T11:54:47;23.70;59.30
25708;DHT22;13567;61.652;17.100;2022-09-21T11:57:24;24.90;54.70
25708;DHT22;13567;61.652;17.100;2022-09-21T12:00:06;24.50;52.10
25708;DHT22;13567;61.652;17.100;2022-09-21T12:21:20;22.30;55.70
25708;DHT22;13567;61.652;17.100;2022-09-21T12:24:15;21.20;56.80
25708;DHT22;13567;61.652;17.100;2022-09-21T12:26:50;22.00;58.50
25708;DHT22;13567;61.652;17.100;2022-09-21T12:30:01;22.90;55.50
25708;DHT22;13567;61.652;17.100;2022-09-21T12:34:50;21.90;56.90
25708;DHT22;13567;61.652;17.100;2022-09-21T12:37:32;20.40;60.50
25708;DHT22;13567;61.652;17.100;2022-09-21T12:40:16;20.40;62.30
25708;DHT22;13567;61.652;17.100;2022-09-21T12:45:28;22.60;57.50
25708;DHT22;13567;61.652;17.100;2022-09-21T12:48:27;22.20;58.10
25708;DHT22;13567;61.652;17.100;2022-09-21T12:50:56;22.50;58.80
25708;DHT22;13567;61.652;17.100;2022-09-21T12:53:34;22.90;57.70
25708;DHT22;13567;61.652;17.100;2022-09-21T12:56:09;22.40;57.90
25708;DHT22;13567;61.652;17.100;2022-09-21T12:58:42;22.50;58.20
25708;DHT22;13567;61.652;17.100;2022-09-21T13:01:26;21.40;61.10
25708;DHT22;13567;61.652;17.100;2022-09-21T13:09:28;19.40;67.10
25708;DHT22;13567;61.652;17.100;2022-09-21T13:12:07;18.60;69.00
25708;DHT22;13567;61.652;17.100;2022-09-21T13:14:40;18.40;72.80
25708;DHT22;13567;61.652;17.100;2022-09-21T13:17:18;19.10;70.10
25708;DHT22;13567;61.652;17.100;2022-09-21T13:19:55;19.00;71.80
25708;DHT22;13567;61.652;17.100;2022-09-21T13:22:31;19.90;71.60
25708;DHT22;13567;61.652;17.100;2022-09-21T13:28:19;20.10;66.90
25708;DHT22;13567;61.652;17.100;2022-09-21T13:34:24;18.90;70.60
25708;DHT22;13567;61.652;17.100;2022-09-21T13:42:47;18.40;72.10
25708;DHT22;13567;61.652;17.100;2022-09-21T13:47:45;19.50;71.30
25708;DHT22;13567;61.652;17.100;2022-09-21T13:50:31;19.80;72.10
25708;DHT22;13567;61.652;17.100;2022-09-21T13:53:05;18.90;71.70
25708;DHT22;13567;61.652;17.100;2022-09-21T13:55:39;18.50;75.70
25708;DHT22;13567;61.652;17.100;2022-09-21T14:00:55;17.70;77.00
25708;DHT22;13567;61.652;17.100;2022-09-21T14:03:35;17.40;79.20
25708;DHT22;13567;61.652;17.100;2022-09-21T14:06:08;16.80;81.60
25708;DHT22;13567;61.652;17.100;2022-09-21T14:08:55;16.60;82.40
25708;DHT22;13567;61.652;17.100;2022-09-21T14:11:35;16.30;83.40
25708;DHT22;13567;61.652;17.100;2022-09-21T14:14:23;16.40;82.50
25708;DHT22;13567;61.652;17.100;2022-09-21T14:16:56;16.00;83.80
25708;DHT22;13567;61.652;17.100;2022-09-21T14:24:45;15.60;87.70
25708;DHT22;13567;61.652;17.100;2022-09-21T14:27:32;15.70;88.90
25708;DHT22;13567;61.652;17.100;2022-09-21T14:30:25;16.00;86.90
25708;DHT22;13567;61.652;17.100;2022-09-21T14:35:33;15.60;89.00
25708;DHT22;13567;61.652;17.100;2022-09-21T14:40:47;16.10;85.80
25708;DHT22;13567;61.652;17.100;2022-09-21T14:43:20;15.60;88.80
25708;DHT22;13567;61.652;17.100;2022-09-21T14:46:03;15.30;90.00
25708;DHT22;13567;61.652;17.100;2022-09-21T14:49:02;15.30;90.40
25708;DHT22;13567;61.652;17.100;2022-09-21T14:55:12;15.80;88.80
25708;DHT22;13567;61.652;17.100;2022-09-21T15:00:42;15.20;90.90
25708;DHT22;13567;61.652;17.100;2022-09-21T15:06:17;14.30;92.90
25708;DHT22;13567;61.652;17.100;2022-09-21T15:09:15;13.80;94.10
25708;DHT22;13567;61.652;17.100;2022-09-21T15:12:13;13.50;94.80
25708;DHT22;13567;61.652;17.100;2022-09-21T15:17:50;13.60;95.90
25708;DHT22;13567;61.652;17.100;2022-09-21T15:20:25;13.20;97.20
25708;DHT22;13567;61.652;17.100;2022-09-21T15:22:54;13.30;98.50
25708;DHT22;13567;61.652;17.100;2022-09-21T15:25:24;13.90;97.70
25708;DHT22;13567;61.652;17.100;2022-09-21T15:27:52;13.90;97.70
25708;DHT22;13567;61.652;17.100;2022-09-21T15:30:25;13.80;97.80
25708;DHT22;13567;61.652;17.100;2022-09-21T15:33:00;13.70;98.50
25708;DHT22;13567;61.652;17.100;2022-09-21T15:35:30;13.70;98.90
25708;DHT22;13567;61.652;17.100;2022-09-21T15:37:59;13.70;98.50
25708;DHT22;13567;61.652;17.100;2022-09-21T15:40:31;13.40;99.70
25708;DHT22;13567;61.652;17.100;2022-09-21T15:43:04;13.30;99.90
25708;DHT22;13567;61.652;17.100;2022-09-21T15:48:25;12.90;99.90
25708;DHT22;13567;61.652;17.100;2022-09-21T15:53:39;12.60;99.90
25708;DHT22;13567;61.652;17.100;2022-09-21T15:56:23;12.40;99.90
25708;DHT22;13567;61.652;17.100;2022-09-21T15:58:58;12.40;99.90
25708;DHT22;13567;61.652;17.100;2022-09-21T16:01:43;12.30;99.90
25708;DHT22;13567;61.652;17.100;2022-09-21T16:04:16;12.10;99.90
25708;DHT22;13567;61.652;17.100;2022-09-21T16:06:58;12.00;99.90
25708;DHT22;13567;61.652;17.100;2022-09-21T16:09:31;11.90;99.90
25708;DHT22;13567;61.652;17.100;2022-09-21T16:15:22;11.70;99.90
25708;DHT22;13567;61.652;17.100;2022-09-21T16:18:27;11.60;99.90
25708;DHT22;13567;61.652;17.100;2022-09-21T16:20:56;11.50;99.90
25708;DHT22;13567;61.652;17.100;2022-09-21T16:23:33;11.40;99.90
25708;DHT22;13567;61.652;17.100;2022-09-21T16:26:00;11.40;99.90
25708;DHT22;13567;61.652;17.100;2022-09-21T16:28:34;11.30;99.90
25708;DHT22;13567;61.652;17.100;2022-09-21T16:31:28;11.30;99.90
25708;DHT22;13567;61.652;17.100;2022-09-21T16:34:01;11.20;99.90
25708;DHT22;13567;61.652;17.100;2022-09-21T16:36:36;11.20;99.90
25708;DHT22;13567;61.652;17.100;2022-09-21T16:39:07;11.10;99.90
25708;DHT22;13567;61.652;17.100;2022-09-21T16:41:46;11.10;99.90
25708;DHT22;13567;61.652;17.100;2022-09-21T16:44:19;11.00;99.90
25708;DHT22;13567;61.652;17.100;2022-09-21T16:46:49;10.90;99.90
25708;DHT22;13567;61.652;17.100;2022-09-21T16:49:19;10.90;99.90
25708;DHT22;13567;61.652;17.100;2022-09-21T16:51:48;10.80;99.90
25708;DHT22;13567;61.652;17.100;2022-09-21T16:54:17;10.80;99.90
25708;DHT22;13567;61.652;17.100;2022-09-21T16:56:44;10.80;99.90
25708;DHT22;13567;61.652;17.100;2022-09-21T16:59:17;10.70;99.90
25708;DHT22;13567;61.652;17.100;2022-09-21T17:01:51;10.70;99.90
25708;DHT22;13567;61.652;17.100;2022-09-21T17:04:27;10.60;99.90
25708;DHT22;13567;61.652;17.100;2022-09-21T17:06:55;10.50;99.90
25708;DHT22;13567;61.652;17.100;2022-09-21T17:09:29;10.40;99.90
25708;DHT22;13567;61.652;17.100;2022-09-21T17:11:58;10.40;99.90
25708;DHT22;13567;61.652;17.100;2022-09-21T17:14:31;10.30;99.90
25708;DHT22;13567;61.652;17.100;2022-09-21T17:17:10;10.20;99.90
25708;DHT22;13567;61.652;17.100;2022-09-21T17:19:38;10.20;99.90
25708;DHT22;13567;61.652;17.100;2022-09-21T17:22:10;10.20;99.90
25708;DHT22;13567;61.652;17.100;2022-09-21T17:24:44;10.20;99.90
25708;DHT22;13567;61.652;17.100;2022-09-21T17:27:21;10.10;99.90
25708;DHT22;13567;61.652;17.100;2022-09-21T17:29:49;10.10;99.90
25708;DHT22;13567;61.652;17.100;2022-09-21T17:32:22;10.10;99.90
25708;DHT22;13567;61.652;17.100;2022-09-21T17:35:17;10.00;99.90
25708;DHT22;13567;61.652;17.100;2022-09-21T17:37:45;9.90;99.90
25708;DHT22;13567;61.652;17.100;2022-09-21T17:40:13;9.90;99.90
25708;DHT22;13567;61.652;17.100;2022-09-21T17:42:41;9.90;99.90
25708;DHT22;13567;61.652;17.100;2022-09-21T17:47:50;9.80;99.90
25708;DHT22;13567;61.652;17.100;2022-09-21T17:50:23;9.70;99.90
25708;DHT22;13567;61.652;17.100;2022-09-21T17:52:53;9.70;99.90
25708;DHT22;13567;61.652;17.100;2022-09-21T17:55:43;9.60;99.90
25708;DHT22;13567;61.652;17.100;2022-09-21T18:01:04;9.40;99.90
25708;DHT22;13567;61.652;17.100;2022-09-21T18:03:36;9.30;99.90
25708;DHT22;13567;61.652;17.100;2022-09-21T18:06:08;9.30;99.90
25708;DHT22;13567;61.652;17.100;2022-09-21T18:08:37;9.20;99.90
25708;DHT22;13567;61.652;17.100;2022-09-21T18:14:33;9.10;99.90
25708;DHT22;13567;61.652;17.100;2022-09-21T18:20:02;8.90;99.90
25708;DHT22;13567;61.652;17.100;2022-09-21T18:25:32;8.80;99.90
25708;DHT22;13567;61.652;17.100;2022-09-21T18:28:10;8.70;99.90
25708;DHT22;13567;61.652;17.100;2022-09-21T18:30:44;8.70;99.90
25708;DHT22;13567;61.652;17.100;2022-09-21T18:36:17;8.80;99.90
25708;DHT22;13567;61.652;17.100;2022-09-21T18:39:01;8.80;99.90
25708;DHT22;13567;61.652;17.100;2022-09-21T18:41:38;8.80;99.90
25708;DHT22;13567;61.652;17.100;2022-09-21T18:44:30;8.70;99.90
25708;DHT22;13567;61.652;17.100;2022-09-21T18:47:27;8.70;99.90
25708;DHT22;13567;61.652;17.100;2022-09-21T18:50:18;8.60;99.90
25708;DHT22;13567;61.652;17.100;2022-09-21T18:55:48;8.60;99.90
25708;DHT22;13567;61.652;17.100;2022-09-21T18:58:16;8.50;99.90
25708;DHT22;13567;61.652;17.100;2022-09-21T19:00:43;8.40;99.90
25708;DHT22;13567;61.652;17.100;2022-09-21T19:03:12;8.40;99.90
25708;DHT22;13567;61.652;17.100;2022-09-21T19:11:20;8.30;99.90
25708;DHT22;13567;61.652;17.100;2022-09-21T19:14:15;8.20;99.90
25708;DHT22;13567;61.652;17.100;2022-09-21T19:19:28;8.20;99.90
25708;DHT22;13567;61.652;17.100;2022-09-21T19:22:13;8.10;99.90
25708;DHT22;13567;61.652;17.100;2022-09-21T19:24:54;8.10;99.90
25708;DHT22;13567;61.652;17.100;2022-09-21T19:27:45;8.10;99.90
25708;DHT22;13567;61.652;17.100;2022-09-21T19:30:17;8.00;99.90
25708;DHT22;13567;61.652;17.100;2022-09-21T19:32:48;8.00;99.90
25708;DHT22;13567;61.652;17.100;2022-09-21T19:35:31;7.90;99.90
25708;DHT22;13567;61.652;17.100;2022-09-21T19:38:00;7.90;99.90
25708;DHT22;13567;61.652;17.100;2022-09-21T19:40:33;7.90;99.90
25708;DHT22;13567;61.652;17.100;2022-09-21T19:48:58;7.80;99.90
25708;DHT22;13567;61.652;17.100;2022-09-21T19:51:48;7.80;99.90
25708;DHT22;13567;61.652;17.100;2022-09-21T19:54:23;7.70;99.90